sensor_id;sensor_type;location;lat;lon;timestamp;pressure;altitude;pressure_sealevel;temperature;humidity
55010;BME280;40903;51.638;7.528;2023-01-29T00:01:14;102464.28;;;-3.37;100.00
55010;BME280;40903;51.638;7.528;2023-01-29T00:03:39;102467.44;;;-3.41;100.00
55010;BME280;40903;51.638;7.528;2023-01-29T00:06:05;102460.56;;;-3.44;100.00
55010;BME280;40903;51.638;7.528;2023-01-29T00:08:34;102458.91;;;-3.45;100.00
55010;BME280;40903;51.638;7.528;2023-01-29T00:11:00;102456.91;;;-3.43;100.00
55010;BME280;40903;51.638;7.528;2023-01-29T00:13:26;102451.25;;;-3.40;100.00
55010;BME280;40903;51.638;7.528;2023-01-29T00:15:52;102447.91;;;-3.42;100.00
55010;BME280;40903;51.638;7.528;2023-01-29T00:18:18;102442.09;;;-3.45;100.00
55010;BME280;40903;51.638;7.528;2023-01-29T00:20:43;102443.91;;;-3.46;100.00
55010;BME280;40903;51.638;7.528;2023-01-29T00:23:09;102445.72;;;-3.46;100.00
55010;BME280;40903;51.638;7.528;2023-01-29T00:25:34;102445.72;;;-3.46;100.00
55010;BME280;40903;51.638;7.528;2023-01-29T00:27:59;102447.69;;;-3.48;100.00
55010;BME280;40903;51.638;7.528;2023-01-29T00:30:24;102442.69;;;-3.51;100.00
55010;BME280;40903;51.638;7.528;2023-01-29T00:32:49;102442.88;;;-3.53;100.00
55010;BME280;40903;51.638;7.528;2023-01-29T00:35:14;102437.00;;;-3.56;100.00
55010;BME280;40903;51.638;7.528;2023-01-29T00:37:40;102444.63;;;-3.61;100.00
55010;BME280;40903;51.638;7.528;2023-01-29T00:40:05;102445.09;;;-3.66;100.00
55010;BME280;40903;51.638;7.528;2023-01-29T00:42:30;102444.25;;;-3.66;100.00
55010;BME280;40903;51.638;7.528;2023-01-29T00:45:14;102443.59;;;-3.68;100.00
55010;BME280;40903;51.638;7.528;2023-01-29T00:47:39;102440.91;;;-3.68;100.00
55010;BME280;40903;51.638;7.528;2023-01-29T00:50:06;102435.59;;;-3.68;100.00
55010;BME280;40903;51.638;7.528;2023-01-29T00:52:31;102437.56;;;-3.70;100.00
55010;BME280;40903;51.638;7.528;2023-01-29T00:54:57;102441.91;;;-3.69;100.00
55010;BME280;40903;51.638;7.528;2023-01-29T00:57:24;102438.94;;;-3.66;100.00
55010;BME280;40903;51.638;7.528;2023-01-29T00:59:49;102450.94;;;-3.62;100.00
55010;BME280;40903;51.638;7.528;2023-01-29T01:02:14;102448.13;;;-3.61;100.00
55010;BME280;40903;51.638;7.528;2023-01-29T01:04:58;102446.13;;;-3.59;100.00
55010;BME280;40903;51.638;7.528;2023-01-29T01:07:23;102447.81;;;-3.58;100.00
55010;BME280;40903;51.638;7.528;2023-01-29T01:09:48;102452.16;;;-3.57;100.00
55010;BME280;40903;51.638;7.528;2023-01-29T01:12:32;102454.81;;;-3.57;100.00
55010;BME280;40903;51.638;7.528;2023-01-29T01:14:58;102442.16;;;-3.55;100.00
55010;BME280;40903;51.638;7.528;2023-01-29T01:17:23;102449.03;;;-3.52;100.00
55010;BME280;40903;51.638;7.528;2023-01-29T01:19:48;102451.69;;;-3.52;100.00
55010;BME280;40903;51.638;7.528;2023-01-29T01:22:14;102434.56;;;-3.50;100.00
55010;BME280;40903;51.638;7.528;2023-01-29T01:24:39;102430.22;;;-3.51;100.00
55010;BME280;40903;51.638;7.528;2023-01-29T01:27:04;102424.88;;;-3.51;100.00
55010;BME280;40903;51.638;7.528;2023-01-29T01:29:30;102400.72;;;-3.49;100.00
55010;BME280;40903;51.638;7.528;2023-01-29T01:31:55;102399.22;;;-3.52;100.00
55010;BME280;40903;51.638;7.528;2023-01-29T01:34:20;102399.91;;;-3.50;100.00
55010;BME280;40903;51.638;7.528;2023-01-29T01:36:46;102409.91;;;-3.44;100.00
55010;BME280;40903;51.638;7.528;2023-01-29T01:39:11;102408.09;;;-3.43;100.00
55010;BME280;40903;51.638;7.528;2023-01-29T01:41:36;102404.44;;;-3.42;100.00
55010;BME280;40903;51.638;7.528;2023-01-29T01:44:02;102406.56;;;-3.46;100.00
55010;BME280;40903;51.638;7.528;2023-01-29T01:46:29;102409.88;;;-3.52;100.00
55010;BME280;40903;51.638;7.528;2023-01-29T01:49:08;102395.84;;;-3.54;100.00
55010;BME280;40903;51.638;7.528;2023-01-29T01:51:37;102400.38;;;-3.54;100.00
55010;BME280;40903;51.638;7.528;2023-01-29T01:54:07;102405.16;;;-3.58;100.00
55010;BME280;40903;51.638;7.528;2023-01-29T01:56:34;102404.63;;;-3.61;100.00
55010;BME280;40903;51.638;7.528;2023-01-29T01:59:04;102417.13;;;-3.62;100.00
55010;BME280;40903;51.638;7.528;2023-01-29T02:01:31;102410.28;;;-3.64;100.00
55010;BME280;40903;51.638;7.528;2023-01-29T02:04:06;102414.94;;;-3.66;100.00
55010;BME280;40903;51.638;7.528;2023-01-29T02:06:51;102410.75;;;-3.69;100.00
55010;BME280;40903;51.638;7.528;2023-01-29T02:09:47;102409.47;;;-3.65;100.00
55010;BME280;40903;51.638;7.528;2023-01-29T02:12:15;102407.00;;;-3.58;100.00
55010;BME280;40903;51.638;7.528;2023-01-29T02:14:41;102402.19;;;-3.55;100.00
55010;BME280;40903;51.638;7.528;2023-01-29T02:17:08;102418.88;;;-3.53;100.00
55010;BME280;40903;51.638;7.528;2023-01-29T02:19:40;102406.50;;;-3.54;100.00
55010;BME280;40903;51.638;7.528;2023-01-29T02:22:19;102414.50;;;-3.54;100.00
55010;BME280;40903;51.638;7.528;2023-01-29T02:30:08;102415.22;;;-3.52;100.00
55010;BME280;40903;51.638;7.528;2023-01-29T02:32:44;102421.69;;;-3.54;100.00
55010;BME280;40903;51.638;7.528;2023-01-29T02:35:28;102420.84;;;-3.55;100.00
55010;BME280;40903;51.638;7.528;2023-01-29T02:37:59;102422.22;;;-3.51;100.00
55010;BME280;40903;51.638;7.528;2023-01-29T02:48:08;102425.44;;;-3.39;100.00
55010;BME280;40903;51.638;7.528;2023-01-29T02:50:41;102420.94;;;-3.39;100.00
55010;BME280;40903;51.638;7.528;2023-01-29T02:53:15;102427.97;;;-3.38;100.00
55010;BME280;40903;51.638;7.528;2023-01-29T02:55:51;102422.63;;;-3.38;100.00
55010;BME280;40903;51.638;7.528;2023-01-29T03:00:51;102427.25;;;-3.40;100.00
55010;BME280;40903;51.638;7.528;2023-01-29T03:03:24;102420.44;;;-3.42;100.00
55010;BME280;40903;51.638;7.528;2023-01-29T03:08:40;102426.44;;;-3.40;100.00
55010;BME280;40903;51.638;7.528;2023-01-29T03:11:12;102422.78;;;-3.39;100.00
55010;BME280;40903;51.638;7.528;2023-01-29T03:18:39;102416.25;;;-3.45;100.00
55010;BME280;40903;51.638;7.528;2023-01-29T03:21:11;102419.06;;;-3.46;100.00
55010;BME280;40903;51.638;7.528;2023-01-29T03:23:56;102425.56;;;-3.49;100.00
55010;BME280;40903;51.638;7.528;2023-01-29T03:26:41;102419.22;;;-3.48;100.00
55010;BME280;40903;51.638;7.528;2023-01-29T03:29:26;102429.56;;;-3.45;100.00
55010;BME280;40903;51.638;7.528;2023-01-29T03:32:11;102434.91;;;-3.45;100.00
55010;BME280;40903;51.638;7.528;2023-01-29T03:34:39;102431.25;;;-3.44;100.00
55010;BME280;40903;51.638;7.528;2023-01-29T03:37:48;102429.25;;;-3.42;100.00
55010;BME280;40903;51.638;7.528;2023-01-29T03:39:54;102428.78;;;-3.37;100.00
55010;BME280;40903;51.638;7.528;2023-01-29T03:42:26;102419.63;;;-3.35;100.00
55010;BME280;40903;51.638;7.528;2023-01-29T03:45:05;102416.50;;;-3.30;100.00
55010;BME280;40903;51.638;7.528;2023-01-29T03:47:49;102410.66;;;-3.26;100.00
55010;BME280;40903;51.638;7.528;2023-01-29T03:52:51;102418.38;;;-3.15;100.00
55010;BME280;40903;51.638;7.528;2023-01-29T03:55:30;102413.56;;;-3.11;100.00
55010;BME280;40903;51.638;7.528;2023-01-29T03:57:59;102411.94;;;-3.04;100.00
55010;BME280;40903;51.638;7.528;2023-01-29T04:00:29;102405.78;;;-2.97;100.00
55010;BME280;40903;51.638;7.528;2023-01-29T04:05:28;102400.88;;;-2.76;100.00
55010;BME280;40903;51.638;7.528;2023-01-29T04:07:58;102408.19;;;-2.70;100.00
55010;BME280;40903;51.638;7.528;2023-01-29T04:10:26;102393.53;;;-2.66;100.00
55010;BME280;40903;51.638;7.528;2023-01-29T04:13:00;102400.03;;;-2.60;100.00
55010;BME280;40903;51.638;7.528;2023-01-29T04:15:27;102396.88;;;-2.56;100.00
55010;BME280;40903;51.638;7.528;2023-01-29T04:17:54;102389.22;;;-2.43;100.00
55010;BME280;40903;51.638;7.528;2023-01-29T04:20:20;102383.56;;;-2.40;100.00
55010;BME280;40903;51.638;7.528;2023-01-29T04:22:46;102374.19;;;-2.36;100.00
55010;BME280;40903;51.638;7.528;2023-01-29T04:25:13;102371.88;;;-2.31;100.00
55010;BME280;40903;51.638;7.528;2023-01-29T04:35:40;102362.03;;;-2.06;100.00
55010;BME280;40903;51.638;7.528;2023-01-29T04:38:10;102366.88;;;-2.02;100.00
55010;BME280;40903;51.638;7.528;2023-01-29T04:43:16;102364.31;;;-1.96;100.00
55010;BME280;40903;51.638;7.528;2023-01-29T04:46:04;102357.00;;;-1.93;100.00
55010;BME280;40903;51.638;7.528;2023-01-29T04:48:56;102348.97;;;-1.93;100.00
55010;BME280;40903;51.638;7.528;2023-01-29T04:51:24;102346.97;;;-1.92;100.00
55010;BME280;40903;51.638;7.528;2023-01-29T04:54:06;102354.97;;;-1.84;100.00
55010;BME280;40903;51.638;7.528;2023-01-29T04:56:42;102359.13;;;-1.81;100.00
55010;BME280;40903;51.638;7.528;2023-01-29T04:59:13;102343.75;;;-1.79;100.00
55010;BME280;40903;51.638;7.528;2023-01-29T05:01:41;102333.72;;;-1.69;100.00
55010;BME280;40903;51.638;7.528;2023-01-29T05:04:08;102331.34;;;-1.64;100.00
55010;BME280;40903;51.638;7.528;2023-01-29T05:06:35;102317.16;;;-1.65;100.00
55010;BME280;40903;51.638;7.528;2023-01-29T05:09:02;102319.28;;;-1.60;100.00
55010;BME280;40903;51.638;7.528;2023-01-29T05:11:27;102316.47;;;-1.59;100.00
55010;BME280;40903;51.638;7.528;2023-01-29T05:13:54;102323.13;;;-1.55;100.00
55010;BME280;40903;51.638;7.528;2023-01-29T05:16:24;102315.44;;;-1.50;100.00
55010;BME280;40903;51.638;7.528;2023-01-29T05:18:51;102301.00;;;-1.41;100.00
55010;BME280;40903;51.638;7.528;2023-01-29T05:21:17;102302.16;;;-1.35;100.00
55010;BME280;40903;51.638;7.528;2023-01-29T05:23:42;102309.53;;;-1.37;100.00
55010;BME280;40903;51.638;7.528;2023-01-29T05:26:17;102309.53;;;-1.37;100.00
55010;BME280;40903;51.638;7.528;2023-01-29T05:29:01;102309.16;;;-1.34;100.00
55010;BME280;40903;51.638;7.528;2023-01-29T05:31:26;102315.19;;;-1.32;100.00
55010;BME280;40903;51.638;7.528;2023-01-29T05:33:51;102311.47;;;-1.23;100.00
55010;BME280;40903;51.638;7.528;2023-01-29T05:36:17;102309.59;;;-1.23;100.00
55010;BME280;40903;51.638;7.528;2023-01-29T05:38:42;102309.44;;;-1.21;100.00
55010;BME280;40903;51.638;7.528;2023-01-29T05:41:07;102301.56;;;-1.23;100.00
55010;BME280;40903;51.638;7.528;2023-01-29T05:43:33;102314.13;;;-1.23;100.00
55010;BME280;40903;51.638;7.528;2023-01-29T05:45:58;102319.78;;;-1.18;100.00
55010;BME280;40903;51.638;7.528;2023-01-29T05:48:24;102326.81;;;-1.17;100.00
55010;BME280;40903;51.638;7.528;2023-01-29T05:50:49;102326.44;;;-1.14;100.00
55010;BME280;40903;51.638;7.528;2023-01-29T05:53:14;102332.50;;;-1.12;100.00
55010;BME280;40903;51.638;7.528;2023-01-29T05:55:43;102334.31;;;-1.13;100.00
55010;BME280;40903;51.638;7.528;2023-01-29T05:58:08;102324.47;;;-1.12;100.00
55010;BME280;40903;51.638;7.528;2023-01-29T06:00:33;102335.97;;;-1.12;100.00
55010;BME280;40903;51.638;7.528;2023-01-29T06:02:58;102337.84;;;-1.12;100.00
55010;BME280;40903;51.638;7.528;2023-01-29T06:05:24;102343.34;;;-1.14;100.00
55010;BME280;40903;51.638;7.528;2023-01-29T06:07:49;102341.84;;;-1.08;100.00
55010;BME280;40903;51.638;7.528;2023-01-29T06:10:15;102343.50;;;-1.07;100.00
55010;BME280;40903;51.638;7.528;2023-01-29T06:12:41;102351.16;;;-1.04;100.00
55010;BME280;40903;51.638;7.528;2023-01-29T06:15:07;102354.69;;;-1.04;100.00
55010;BME280;40903;51.638;7.528;2023-01-29T06:17:32;102356.16;;;-1.01;100.00
55010;BME280;40903;51.638;7.528;2023-01-29T06:19:57;102350.81;;;-1.01;100.00
55010;BME280;40903;51.638;7.528;2023-01-29T06:22:22;102354.34;;;-1.01;100.00
55010;BME280;40903;51.638;7.528;2023-01-29T06:24:48;102355.81;;;-0.98;100.00
55010;BME280;40903;51.638;7.528;2023-01-29T06:27:13;102344.13;;;-0.97;100.00
55010;BME280;40903;51.638;7.528;2023-01-29T06:29:38;102344.59;;;-0.94;100.00
55010;BME280;40903;51.638;7.528;2023-01-29T06:32:03;102327.69;;;-0.94;100.00
55010;BME280;40903;51.638;7.528;2023-01-29T06:34:29;102335.38;;;-0.91;100.00
55010;BME280;40903;51.638;7.528;2023-01-29T06:36:54;102338.34;;;-0.86;100.00
55010;BME280;40903;51.638;7.528;2023-01-29T06:39:19;102343.53;;;-0.85;100.00
55010;BME280;40903;51.638;7.528;2023-01-29T06:41:44;102335.78;;;-0.80;100.00
55010;BME280;40903;51.638;7.528;2023-01-29T06:44:10;102339.69;;;-0.82;100.00
55010;BME280;40903;51.638;7.528;2023-01-29T06:46:35;102347.00;;;-0.76;100.00
55010;BME280;40903;51.638;7.528;2023-01-29T06:49:00;102347.72;;;-0.82;100.00
55010;BME280;40903;51.638;7.528;2023-01-29T06:51:25;102352.06;;;-0.81;100.00
55010;BME280;40903;51.638;7.528;2023-01-29T06:53:51;102346.69;;;-0.81;100.00
55010;BME280;40903;51.638;7.528;2023-01-29T06:56:18;102345.63;;;-0.72;100.00
55010;BME280;40903;51.638;7.528;2023-01-29T06:58:43;102354.66;;;-0.73;100.00
55010;BME280;40903;51.638;7.528;2023-01-29T07:01:09;102343.31;;;-0.75;100.00
55010;BME280;40903;51.638;7.528;2023-01-29T07:03:35;102344.69;;;-0.79;100.00
55010;BME280;40903;51.638;7.528;2023-01-29T07:06:01;102349.03;;;-0.78;100.00
55010;BME280;40903;51.638;7.528;2023-01-29T07:08:26;102347.81;;;-0.76;100.00
55010;BME280;40903;51.638;7.528;2023-01-29T07:10:52;102339.25;;;-0.71;100.00
55010;BME280;40903;51.638;7.528;2023-01-29T07:13:17;102356.97;;;-0.70;100.00
55010;BME280;40903;51.638;7.528;2023-01-29T07:15:43;102364.97;;;-0.62;100.00
55010;BME280;40903;51.638;7.528;2023-01-29T07:18:08;102360.00;;;-0.65;100.00
55010;BME280;40903;51.638;7.528;2023-01-29T07:20:37;102350.28;;;-0.66;100.00
55010;BME280;40903;51.638;7.528;2023-01-29T07:23:03;102343.91;;;-0.65;100.00
55010;BME280;40903;51.638;7.528;2023-01-29T07:25:28;102342.00;;;-0.57;100.00
55010;BME280;40903;51.638;7.528;2023-01-29T07:28:00;102317.38;;;-0.52;100.00
55010;BME280;40903;51.638;7.528;2023-01-29T07:30:26;102315.34;;;-0.50;100.00
55010;BME280;40903;51.638;7.528;2023-01-29T07:32:51;102329.56;;;-0.50;100.00
55010;BME280;40903;51.638;7.528;2023-01-29T07:35:16;102333.19;;;-0.43;100.00
55010;BME280;40903;51.638;7.528;2023-01-29T07:37:41;102325.81;;;-0.41;100.00
55010;BME280;40903;51.638;7.528;2023-01-29T07:40:07;102344.03;;;-0.36;100.00
55010;BME280;40903;51.638;7.528;2023-01-29T07:42:35;102339.22;;;-0.41;100.00
55010;BME280;40903;51.638;7.528;2023-01-29T07:45:00;102344.19;;;-0.38;100.00
55010;BME280;40903;51.638;7.528;2023-01-29T07:47:25;102336.53;;;-0.41;100.00
55010;BME280;40903;51.638;7.528;2023-01-29T07:49:51;102336.34;;;-0.39;100.00
55010;BME280;40903;51.638;7.528;2023-01-29T07:52:16;102325.94;;;-0.34;100.00
55010;BME280;40903;51.638;7.528;2023-01-29T07:54:42;102329.53;;;-0.27;100.00
55010;BME280;40903;51.638;7.528;2023-01-29T07:57:07;102332.59;;;-0.30;99.91
55010;BME280;40903;51.638;7.528;2023-01-29T07:59:33;102326.03;;;-0.28;100.00
55010;BME280;40903;51.638;7.528;2023-01-29T08:01:58;102322.72;;;-0.30;100.00
55010;BME280;40903;51.638;7.528;2023-01-29T08:04:23;102323.47;;;-0.21;100.00
55010;BME280;40903;51.638;7.528;2023-01-29T08:06:48;102313.09;;;-0.24;99.80
55010;BME280;40903;51.638;7.528;2023-01-29T08:09:13;102307.66;;;-0.16;99.53
55010;BME280;40903;51.638;7.528;2023-01-29T08:11:39;102313.41;;;-0.19;99.24
55010;BME280;40903;51.638;7.528;2023-01-29T08:14:04;102331.16;;;-0.18;99.24
55010;BME280;40903;51.638;7.528;2023-01-29T08:16:29;102320.78;;;-0.21;99.53
55010;BME280;40903;51.638;7.528;2023-01-29T08:18:54;102317.09;;;-0.20;100.00
55010;BME280;40903;51.638;7.528;2023-01-29T08:21:19;102319.22;;;-0.16;100.00
55010;BME280;40903;51.638;7.528;2023-01-29T08:23:45;102330.41;;;-0.12;99.38
55010;BME280;40903;51.638;7.528;2023-01-29T08:26:10;102323.38;;;-0.13;99.54
55010;BME280;40903;51.638;7.528;2023-01-29T08:28:35;102318.88;;;-0.13;99.98
55010;BME280;40903;51.638;7.528;2023-01-29T08:31:02;102318.28;;;-0.08;100.00
55010;BME280;40903;51.638;7.528;2023-01-29T08:33:27;102313.94;;;-0.09;100.00
55010;BME280;40903;51.638;7.528;2023-01-29T08:35:53;102305.19;;;-0.03;100.00
55010;BME280;40903;51.638;7.528;2023-01-29T08:38:18;102304.34;;;-0.04;100.00
55010;BME280;40903;51.638;7.528;2023-01-29T08:40:43;102294.09;;;-0.01;100.00
55010;BME280;40903;51.638;7.528;2023-01-29T08:43:09;102287.19;;;0.05;99.10
55010;BME280;40903;51.638;7.528;2023-01-29T08:45:36;102279.50;;;0.02;98.71
55010;BME280;40903;51.638;7.528;2023-01-29T08:48:01;102279.31;;;0.03;98.83
55010;BME280;40903;51.638;7.528;2023-01-29T08:50:27;102278.75;;;0.08;98.24
55010;BME280;40903;51.638;7.528;2023-01-29T08:52:57;102273.88;;;0.11;98.28
55010;BME280;40903;51.638;7.528;2023-01-29T08:55:23;102279.50;;;0.16;98.03
55010;BME280;40903;51.638;7.528;2023-01-29T08:57:48;102278.31;;;0.19;97.88
55010;BME280;40903;51.638;7.528;2023-01-29T09:00:14;102277.47;;;0.18;97.80
55010;BME280;40903;51.638;7.528;2023-01-29T09:02:39;102275.34;;;0.28;97.54
55010;BME280;40903;51.638;7.528;2023-01-29T09:05:05;102260.34;;;0.34;97.21
55010;BME280;40903;51.638;7.528;2023-01-29T09:07:30;102258.31;;;0.36;96.98
55010;BME280;40903;51.638;7.528;2023-01-29T09:09:55;102259.69;;;0.46;96.22
55010;BME280;40903;51.638;7.528;2023-01-29T09:12:20;102262.50;;;0.38;96.71
55010;BME280;40903;51.638;7.528;2023-01-29T09:14:46;102263.56;;;0.44;97.11
55010;BME280;40903;51.638;7.528;2023-01-29T09:17:11;102265.31;;;0.51;96.04
55010;BME280;40903;51.638;7.528;2023-01-29T09:19:36;102256.72;;;0.56;95.79
55010;BME280;40903;51.638;7.528;2023-01-29T09:22:01;102252.28;;;0.63;95.38
55010;BME280;40903;51.638;7.528;2023-01-29T09:24:26;102257.34;;;0.72;95.77
55010;BME280;40903;51.638;7.528;2023-01-29T09:26:52;102260.91;;;0.79;94.66
55010;BME280;40903;51.638;7.528;2023-01-29T09:29:17;102254.16;;;0.83;94.91
55010;BME280;40903;51.638;7.528;2023-01-29T09:31:42;102246.81;;;0.92;94.11
55010;BME280;40903;51.638;7.528;2023-01-29T09:34:07;102245.22;;;0.97;93.93
55010;BME280;40903;51.638;7.528;2023-01-29T09:36:33;102235.50;;;0.96;93.67
55010;BME280;40903;51.638;7.528;2023-01-29T09:38:58;102247.53;;;1.00;93.94
55010;BME280;40903;51.638;7.528;2023-01-29T09:43:55;102247.53;;;1.00;93.36
55010;BME280;40903;51.638;7.528;2023-01-29T09:48:49;102239.66;;;0.99;93.70
55010;BME280;40903;51.638;7.528;2023-01-29T09:51:51;102232.50;;;1.06;93.81
55010;BME280;40903;51.638;7.528;2023-01-29T09:56:36;102243.28;;;1.12;93.01
55010;BME280;40903;51.638;7.528;2023-01-29T09:59:01;102236.47;;;1.10;92.22
55010;BME280;40903;51.638;7.528;2023-01-29T10:04:05;102245.22;;;1.18;92.76
55010;BME280;40903;51.638;7.528;2023-01-29T10:09:31;102254.38;;;1.24;93.09
55010;BME280;40903;51.638;7.528;2023-01-29T10:12:05;102243.25;;;1.27;93.73
55010;BME280;40903;51.638;7.528;2023-01-29T10:14:38;102243.50;;;1.32;94.43
55010;BME280;40903;51.638;7.528;2023-01-29T10:24:53;102248.19;;;1.44;92.53
55010;BME280;40903;51.638;7.528;2023-01-29T10:27:21;102236.75;;;1.42;93.19
55010;BME280;40903;51.638;7.528;2023-01-29T10:29:47;102245.53;;;1.51;92.01
55010;BME280;40903;51.638;7.528;2023-01-29T10:32:19;102243.03;;;1.49;91.54
55010;BME280;40903;51.638;7.528;2023-01-29T10:37:39;102238.69;;;1.48;91.82
55010;BME280;40903;51.638;7.528;2023-01-29T10:40:10;102228.00;;;1.55;91.69
55010;BME280;40903;51.638;7.528;2023-01-29T10:42:43;102217.69;;;1.58;90.86
55010;BME280;40903;51.638;7.528;2023-01-29T10:50:41;102192.84;;;1.56;90.00
55010;BME280;40903;51.638;7.528;2023-01-29T10:55:53;102187.84;;;1.53;90.46
55010;BME280;40903;51.638;7.528;2023-01-29T11:00:56;102186.44;;;1.57;90.70
55010;BME280;40903;51.638;7.528;2023-01-29T11:03:23;102184.19;;;1.61;92.22
55010;BME280;40903;51.638;7.528;2023-01-29T11:08:17;102185.94;;;1.75;91.80
55010;BME280;40903;51.638;7.528;2023-01-29T11:10:46;102184.31;;;1.80;90.49
55010;BME280;40903;51.638;7.528;2023-01-29T11:13:15;102170.88;;;1.80;90.94
55010;BME280;40903;51.638;7.528;2023-01-29T11:15:41;102169.84;;;1.81;89.65
55010;BME280;40903;51.638;7.528;2023-01-29T11:18:09;102168.19;;;1.80;90.00
55010;BME280;40903;51.638;7.528;2023-01-29T11:20:37;102172.13;;;1.84;89.81
55010;BME280;40903;51.638;7.528;2023-01-29T11:23:03;102170.06;;;1.86;90.14
55010;BME280;40903;51.638;7.528;2023-01-29T11:25:28;102166.34;;;1.87;89.65
55010;BME280;40903;51.638;7.528;2023-01-29T11:28:05;102162.84;;;1.87;89.73
55010;BME280;40903;51.638;7.528;2023-01-29T11:30:31;102159.97;;;1.94;89.41
55010;BME280;40903;51.638;7.528;2023-01-29T11:35:29;102144.69;;;1.95;87.86
55010;BME280;40903;51.638;7.528;2023-01-29T11:38:04;102139.75;;;1.98;87.88
55010;BME280;40903;51.638;7.528;2023-01-29T11:40:34;102138.28;;;1.96;87.38
55010;BME280;40903;51.638;7.528;2023-01-29T11:45:44;102121.34;;;1.95;88.48
55010;BME280;40903;51.638;7.528;2023-01-29T11:48:17;102119.69;;;2.01;88.48
55010;BME280;40903;51.638;7.528;2023-01-29T11:50:43;102110.19;;;2.05;87.10
55010;BME280;40903;51.638;7.528;2023-01-29T11:55:52;102103.38;;;2.09;86.79
55010;BME280;40903;51.638;7.528;2023-01-29T11:58:22;102100.06;;;2.07;87.44
55010;BME280;40903;51.638;7.528;2023-01-29T12:00:50;102090.13;;;2.07;87.67
55010;BME280;40903;51.638;7.528;2023-01-29T12:03:21;102086.19;;;2.10;87.75
55010;BME280;40903;51.638;7.528;2023-01-29T12:06:23;102078.97;;;2.17;87.09
55010;BME280;40903;51.638;7.528;2023-01-29T12:08:40;102063.66;;;2.17;87.84
55010;BME280;40903;51.638;7.528;2023-01-29T12:13:33;102061.63;;;2.26;85.98
55010;BME280;40903;51.638;7.528;2023-01-29T12:16:11;102053.97;;;2.29;84.80
55010;BME280;40903;51.638;7.528;2023-01-29T12:18:40;102040.50;;;2.23;85.29
55010;BME280;40903;51.638;7.528;2023-01-29T12:31:27;102011.72;;;2.30;86.60
55010;BME280;40903;51.638;7.528;2023-01-29T12:33:59;102015.69;;;2.34;85.53
55010;BME280;40903;51.638;7.528;2023-01-29T12:38:56;102018.78;;;2.44;84.84
55010;BME280;40903;51.638;7.528;2023-01-29T12:41:24;102005.94;;;2.39;85.21
55010;BME280;40903;51.638;7.528;2023-01-29T12:43:53;102010.94;;;2.42;84.64
55010;BME280;40903;51.638;7.528;2023-01-29T12:46:21;101997.66;;;2.41;84.87
55010;BME280;40903;51.638;7.528;2023-01-29T12:48:48;101997.88;;;2.39;85.40
55010;BME280;40903;51.638;7.528;2023-01-29T12:51:16;101999.13;;;2.37;85.57
55010;BME280;40903;51.638;7.528;2023-01-29T12:53:44;101999.13;;;2.37;86.31
55010;BME280;40903;51.638;7.528;2023-01-29T12:58:46;101987.09;;;2.52;84.79
55010;BME280;40903;51.638;7.528;2023-01-29T13:03:44;101982.56;;;2.53;84.11
55010;BME280;40903;51.638;7.528;2023-01-29T13:06:12;101983.81;;;2.57;83.73
55010;BME280;40903;51.638;7.528;2023-01-29T13:08:50;101981.94;;;2.57;83.19
55010;BME280;40903;51.638;7.528;2023-01-29T13:11:28;101985.03;;;2.61;82.74
55010;BME280;40903;51.638;7.528;2023-01-29T13:14:03;101968.88;;;2.54;82.99
55010;BME280;40903;51.638;7.528;2023-01-29T13:16:36;101981.53;;;2.47;83.67
55010;BME280;40903;51.638;7.528;2023-01-29T13:19:08;101975.09;;;2.48;84.02
55010;BME280;40903;51.638;7.528;2023-01-29T13:21:39;101975.09;;;2.48;84.66
55010;BME280;40903;51.638;7.528;2023-01-29T13:24:09;101964.34;;;2.55;84.76
55010;BME280;40903;51.638;7.528;2023-01-29T13:26:36;101962.88;;;2.59;84.10
55010;BME280;40903;51.638;7.528;2023-01-29T13:29:02;101966.59;;;2.58;83.40
55010;BME280;40903;51.638;7.528;2023-01-29T13:31:33;101955.03;;;2.57;84.51
55010;BME280;40903;51.638;7.528;2023-01-29T13:36:43;101960.59;;;2.62;84.76
55010;BME280;40903;51.638;7.528;2023-01-29T13:39:15;101961.22;;;2.71;84.35
55010;BME280;40903;51.638;7.528;2023-01-29T13:41:43;101963.72;;;2.72;83.16
55010;BME280;40903;51.638;7.528;2023-01-29T13:46:56;101949.66;;;2.57;81.90
55010;BME280;40903;51.638;7.528;2023-01-29T13:49:23;101952.72;;;2.61;83.06
55010;BME280;40903;51.638;7.528;2023-01-29T13:51:49;101950.03;;;2.61;81.85
55010;BME280;40903;51.638;7.528;2023-01-29T13:54:16;101951.50;;;2.57;82.10
55010;BME280;40903;51.638;7.528;2023-01-29T13:56:46;101949.03;;;2.49;82.84
55010;BME280;40903;51.638;7.528;2023-01-29T13:59:21;101955.66;;;2.53;83.51
55010;BME280;40903;51.638;7.528;2023-01-29T14:06:47;101949.41;;;2.59;82.03
55010;BME280;40903;51.638;7.528;2023-01-29T14:11:56;101945.69;;;2.53;82.74
55010;BME280;40903;51.638;7.528;2023-01-29T14:15:03;101937.63;;;2.47;83.48
55010;BME280;40903;51.638;7.528;2023-01-29T14:17:14;101935.75;;;2.54;82.10
55010;BME280;40903;51.638;7.528;2023-01-29T14:19:50;101939.50;;;2.53;82.43
55010;BME280;40903;51.638;7.528;2023-01-29T14:22:19;101932.22;;;2.53;82.88
55010;BME280;40903;51.638;7.528;2023-01-29T14:24:46;101929.97;;;2.50;82.47
55010;BME280;40903;51.638;7.528;2023-01-29T14:27:16;101929.53;;;2.47;82.97
55010;BME280;40903;51.638;7.528;2023-01-29T14:29:43;101926.66;;;2.48;82.80
55010;BME280;40903;51.638;7.528;2023-01-29T14:34:40;101924.56;;;2.50;82.60
55010;BME280;40903;51.638;7.528;2023-01-29T14:47:19;101917.97;;;2.40;83.65
55010;BME280;40903;51.638;7.528;2023-01-29T14:52:12;101914.03;;;2.42;82.62
55010;BME280;40903;51.638;7.528;2023-01-29T14:54:39;101907.38;;;2.38;83.64
55010;BME280;40903;51.638;7.528;2023-01-29T14:57:04;101897.47;;;2.39;83.67
55010;BME280;40903;51.638;7.528;2023-01-29T14:59:33;101912.16;;;2.36;84.58
55010;BME280;40903;51.638;7.528;2023-01-29T15:02:03;101907.19;;;2.40;84.13
55010;BME280;40903;51.638;7.528;2023-01-29T15:04:43;101908.84;;;2.41;83.94
55010;BME280;40903;51.638;7.528;2023-01-29T15:09:40;101904.69;;;2.45;83.86